Time;durP1;ratioP1;P1;durP2;ratioP2;P2;SDS_P1;SDS_P2;PMS_P1;PMS_P2;Temp;Humidity;BMP_temperature;BMP_pressure;BME280_temperature;BME280_humidity;BME280_pressure;Samples;Min_cycle;Max_cycle;Signal;HPM_P1;HPM_P2
2022/07/18 00:02:00;;;;;;;2.13;1.10;;;19.30;50.50;;;18.48;37.46;98065.72;5049478;28;20393;-75
2022/07/18 00:04:26;;;;;;;7.95;1.50;;;19.30;50.20;;;18.41;37.63;98076.00;5049387;28;20409;-75
2022/07/18 00:06:53;;;;;;;2.75;1.35;;;19.20;50.20;;;18.50;37.73;98074.25;5051843;28;20410;-76
2022/07/18 00:09:22;;;;;;;2.22;1.40;;;19.20;50.30;;;18.31;37.95;98068.03;5053004;28;20409;-75
2022/07/18 00:11:49;;;;;;;2.58;1.30;;;19.10;50.40;;;18.30;38.22;98069.13;5035064;28;20858;-75
2022/07/18 00:14:16;;;;;;;1.88;1.35;;;19.10;50.80;;;18.26;38.07;98066.22;5053190;28;20783;-75
2022/07/18 00:16:42;;;;;;;3.10;1.40;;;19.10;50.80;;;18.21;37.27;98062.78;5053191;28;20504;-74
2022/07/18 00:19:08;;;;;;;2.40;1.52;;;19.00;49.90;;;18.15;37.45;98070.06;5052549;28;20413;-74
2022/07/18 00:21:34;;;;;;;2.63;1.30;;;19.00;50.10;;;18.29;37.94;98070.19;5035026;28;20444;-76
2022/07/18 00:24:00;;;;;;;1.95;1.40;;;19.10;50.30;;;18.16;37.71;98077.84;5035103;28;20500;-76
2022/07/18 00:26:27;;;;;;;2.28;1.30;;;19.00;50.20;;;18.27;38.13;98081.19;5035162;28;20413;-75
2022/07/18 00:28:55;;;;;;;1.47;1.20;;;19.00;50.50;;;18.10;38.52;98080.84;5052544;28;20901;-75
2022/07/18 00:31:21;;;;;;;1.83;1.33;;;18.90;51.00;;;18.00;38.48;98078.25;5052792;28;20496;-75
2022/07/18 00:33:47;;;;;;;4.43;1.50;;;18.80;51.00;;;17.96;38.04;98072.69;5034985;28;20420;-76
2022/07/18 00:36:13;;;;;;;2.50;1.13;;;18.80;50.70;;;17.94;38.45;98074.03;5052851;28;20401;-76
2022/07/18 00:38:39;;;;;;;2.17;1.20;;;18.80;50.80;;;18.04;38.21;98073.94;5052219;28;20907;-75
2022/07/18 00:41:05;;;;;;;2.00;1.30;;;18.80;50.80;;;17.98;38.17;98067.00;5052544;28;20404;-76
2022/07/18 00:43:32;;;;;;;4.38;1.30;;;18.80;50.70;;;18.02;38.16;98071.53;5052818;28;20390;-76
2022/07/18 00:45:59;;;;;;;1.67;1.30;;;18.80;50.80;;;17.86;38.34;98069.28;5052512;28;20408;-76
2022/07/18 00:48:25;;;;;;;2.30;1.30;;;18.70;50.80;;;17.86;38.77;98063.91;5051946;28;20489;-75
2022/07/18 00:50:51;;;;;;;1.80;1.20;;;18.70;51.20;;;17.80;38.71;98063.19;5052394;28;20488;-76
2022/07/18 00:53:18;;;;;;;3.03;1.45;;;18.60;51.30;;;17.71;38.57;98065.66;5052573;28;20416;-75
2022/07/18 00:55:46;;;;;;;1.80;1.40;;;18.50;51.10;;;17.69;38.77;98065.13;5052547;28;20400;-76
2022/07/18 00:58:13;;;;;;;2.20;1.25;;;18.50;51.20;;;17.69;38.53;98062.44;5052062;28;20401;-76
2022/07/18 01:03:27;;;;;;;2.90;1.45;;;18.50;51.40;;;17.64;39.25;98059.81;5059253;28;20868;-76
2022/07/18 01:05:54;;;;;;;1.77;1.33;;;18.50;51.70;;;17.59;39.27;98057.13;5052315;28;20925;-76
2022/07/18 01:08:20;;;;;;;2.78;1.30;;;18.40;51.90;;;17.57;39.21;98050.47;5051716;28;20492;-76
2022/07/18 01:10:46;;;;;;;1.33;1.23;;;18.40;51.90;;;17.51;39.34;98063.09;5052004;28;20409;-76
2022/07/18 01:13:12;;;;;;;2.17;1.40;;;18.30;52.00;;;17.47;39.53;98061.25;5052171;28;20497;-76
2022/07/18 01:15:38;;;;;;;1.80;1.40;;;18.30;52.00;;;17.41;39.84;98058.63;5052100;28;20493;-76
2022/07/18 01:18:04;;;;;;;4.95;1.60;;;18.30;52.40;;;17.46;39.87;98056.97;5034420;28;20837;-76
2022/07/18 01:20:32;;;;;;;2.17;1.50;;;18.30;52.60;;;17.40;40.26;98065.03;5031750;28;20395;-76
2022/07/18 01:22:59;;;;;;;2.58;1.50;;;18.20;52.90;;;17.28;40.43;98059.25;5032118;28;20908;-76
2022/07/18 01:25:26;;;;;;;2.03;1.20;;;18.10;52.90;;;17.25;39.61;98067.81;5031873;28;20411;-76
2022/07/18 01:27:52;;;;;;;2.47;1.57;;;18.10;52.40;;;17.33;39.68;98063.75;5032175;28;20496;-76
2022/07/18 01:30:19;;;;;;;2.97;1.40;;;18.20;52.50;;;17.31;39.89;98057.88;5013450;28;20812;-76
2022/07/18 01:32:45;;;;;;;1.83;1.15;;;18.10;52.50;;;17.20;39.98;98062.50;5031678;28;20473;-76
2022/07/18 01:35:11;;;;;;;3.25;1.40;;;18.10;52.50;;;17.17;39.87;98071.06;5031761;28;20407;-75
2022/07/18 01:37:39;;;;;;;1.80;1.30;;;18.00;52.40;;;17.15;39.88;98059.84;5031994;28;20893;-76
2022/07/18 01:40:08;;;;;;;2.50;1.33;;;18.00;52.40;;;17.07;40.03;98062.28;5013212;28;20895;-76
2022/07/18 01:42:34;;;;;;;3.53;1.30;;;17.90;52.70;;;17.06;39.64;98055.38;5031800;28;20403;-76
2022/07/18 01:45:00;;;;;;;1.50;1.20;;;17.90;52.60;;;17.00;39.53;98059.94;5031470;28;20769;-76
2022/07/18 01:47:26;;;;;;;2.22;1.30;;;17.90;52.20;;;17.02;39.81;98060.47;5105151;22;20935;-82
2022/07/18 01:49:52;;;;;;;2.97;1.30;;;17.90;52.50;;;17.19;39.79;98068.13;5096147;28;20441;-82
2022/07/18 01:52:18;;;;;;;3.10;1.40;;;17.90;52.80;;;17.02;40.20;98063.94;5095624;28;20426;-82
2022/07/18 01:54:45;;;;;;;3.08;1.25;;;17.90;52.80;;;16.98;40.32;98064.78;5095500;28;20398;-82
2022/07/18 01:57:11;;;;;;;1.77;1.30;;;17.80;53.00;;;16.93;40.75;98051.41;5096300;28;20394;-82
2022/07/18 01:59:37;;;;;;;1.52;1.30;;;17.80;53.30;;;16.87;40.71;98049.84;5103484;28;20405;-82
2022/07/18 02:02:05;;;;;;;2.17;1.38;;;17.70;53.20;;;16.86;40.56;98053.59;5104461;28;20405;-82
2022/07/18 02:07:37;;;;;;;1.90;1.20;;;17.70;53.30;;;16.86;40.54;98066.94;5058738;28;20414;-82
2022/07/18 02:10:08;;;;;;;2.50;1.30;;;17.70;53.40;;;16.77;40.69;98052.53;5054214;28;20405;-83
2022/07/18 02:12:34;;;;;;;3.40;1.40;;;17.60;53.30;;;16.79;40.84;98064.56;5066616;28;20905;-82
2022/07/18 02:15:00;;;;;;;3.33;1.47;;;17.60;53.60;;;16.76;41.08;98070.50;5076295;28;20399;-82
2022/07/18 02:17:26;;;;;;;3.60;1.58;;;17.60;53.60;;;16.72;41.37;98063.28;5076611;28;20408;-82
2022/07/18 02:19:52;;;;;;;2.78;1.50;;;17.50;54.00;;;16.62;41.78;98058.75;5076606;28;20452;-82
2022/07/18 02:22:18;;;;;;;2.70;1.40;;;17.40;54.30;;;16.55;41.81;98059.03;5075929;28;20473;-82
2022/07/18 02:24:44;;;;;;;1.88;1.33;;;17.40;54.60;;;16.53;42.27;98065.72;5076593;28;20407;-81
2022/07/18 02:27:12;;;;;;;3.30;1.60;;;17.30;54.90;;;16.46;41.83;98063.34;5076229;28;20396;-82
2022/07/18 02:29:38;;;;;;;1.73;1.50;;;17.30;54.60;;;16.49;42.22;98067.34;5075254;28;20403;-82
2022/07/18 02:32:05;;;;;;;1.73;1.40;;;17.40;54.70;;;16.57;41.89;98069.44;5075929;28;20410;-82
2022/07/18 02:34:31;;;;;;;3.42;1.40;;;17.40;54.70;;;16.44;42.63;98068.16;5075999;28;20481;-83
2022/07/18 02:36:57;;;;;;;2.10;1.33;;;17.30;55.10;;;16.40;42.64;98066.28;5075241;28;20487;-83
2022/07/18 02:39:23;;;;;;;2.90;1.50;;;17.20;55.20;;;16.42;42.80;98070.28;5075193;28;20434;-83
2022/07/18 02:41:49;;;;;;;2.10;1.80;;;17.30;55.60;;;16.49;42.44;98068.13;5075581;28;20402;-83
2022/07/18 02:44:16;;;;;;;3.38;1.73;;;17.30;55.40;;;16.42;42.53;98067.63;5080989;28;20403;-83
2022/07/18 02:46:42;;;;;;;3.30;1.42;;;17.20;55.30;;;16.28;42.33;98069.25;5086902;28;20423;-82
2022/07/18 02:49:08;;;;;;;3.45;1.63;;;17.20;55.20;;;16.22;42.89;98067.69;5078946;28;20414;-83
2022/07/18 02:51:34;;;;;;;3.08;1.70;;;17.00;55.50;;;16.23;42.87;98074.63;5074007;28;20396;-83
2022/07/18 02:54:00;;;;;;;2.57;1.50;;;17.00;55.60;;;16.25;43.35;98070.59;5074299;28;20415;-83
2022/07/18 02:56:26;;;;;;;2.83;1.40;;;17.10;55.80;;;16.17;43.59;98070.34;5075999;28;20480;-84
2022/07/18 02:58:52;;;;;;;2.55;1.50;;;17.00;56.10;;;16.11;43.43;98074.09;5074861;28;20498;-83
2022/07/18 03:01:20;;;;;;;2.13;1.40;;;17.00;56.30;;;16.04;43.83;98069.03;5075365;28;20433;-83
2022/07/18 03:03:45;;;;;;;4.93;1.80;;;16.90;56.30;;;16.01;44.00;98072.25;5076313;28;20430;-83
2022/07/18 03:06:11;;;;;;;2.47;1.67;;;16.90;56.50;;;16.02;43.66;98070.38;5076101;28;20881;-83
2022/07/18 03:08:37;;;;;;;2.67;1.50;;;16.90;56.30;;;16.10;43.46;98067.16;5075697;28;20408;-83
2022/07/18 03:11:03;;;;;;;2.05;1.38;;;17.00;56.30;;;16.06;43.54;98071.44;5076905;28;20432;-83
2022/07/18 03:13:29;;;;;;;2.80;1.57;;;16.90;56.20;;;16.05;43.51;98070.63;5074417;28;20809;-83
2022/07/18 03:15:55;;;;;;;2.60;1.40;;;16.90;56.20;;;16.03;43.94;98069.28;5075864;28;20403;-82
2022/07/18 03:18:24;;;;;;;3.05;1.70;;;16.90;56.40;;;16.05;44.15;98065.31;5076911;28;20461;-83
2022/07/18 03:20:50;;;;;;;2.83;1.55;;;16.90;56.80;;;16.07;44.17;98068.50;5077514;28;20395;-83
2022/07/18 03:23:16;;;;;;;4.10;1.52;;;16.90;56.90;;;15.99;44.11;98074.41;5076537;28;20406;-83
2022/07/18 03:25:42;;;;;;;5.13;1.83;;;16.80;56.80;;;15.93;44.56;98064.78;5077212;28;20418;-83
2022/07/18 03:28:08;;;;;;;3.23;1.90;;;16.80;57.30;;;15.84;45.10;98069.88;5075976;28;20450;-83
2022/07/18 03:30:34;;;;;;;2.90;1.70;;;16.70;57.60;;;15.81;45.20;98078.41;5075407;28;20396;-83
2022/07/18 03:33:00;;;;;;;2.97;1.52;;;16.70;57.70;;;15.92;45.24;98070.41;5076446;28;20969;-83
2022/07/18 03:35:27;;;;;;;2.63;1.70;;;16.80;58.10;;;15.91;45.29;98077.59;5077229;28;20411;-83
2022/07/18 03:37:53;;;;;;;4.22;2.00;;;16.80;57.90;;;15.93;45.33;98069.34;5076581;28;20442;-83
2022/07/18 03:40:19;;;;;;;2.50;1.67;;;16.80;57.90;;;15.84;45.74;98074.41;5075344;28;20403;-83
2022/07/18 03:42:45;;;;;;;2.80;1.52;;;16.70;58.30;;;15.77;46.11;98072.00;5081182;28;20403;-83
2022/07/18 03:45:11;;;;;;;4.10;2.00;;;16.60;58.60;;;15.87;46.43;98073.84;5088809;28;20505;-83
2022/07/18 03:47:37;;;;;;;3.40;1.80;;;16.60;59.00;;;15.88;46.17;98070.91;5099709;28;20390;-83
2022/07/18 03:50:03;;;;;;;4.60;1.70;;;16.70;58.90;;;15.83;46.82;98081.59;5092714;28;20399;-83
2022/07/18 03:52:31;;;;;;;2.67;1.70;;;16.70;59.20;;;15.77;46.82;98073.88;5084268;28;20787;-83
2022/07/18 03:54:57;;;;;;;3.00;1.90;;;16.60;59.40;;;15.76;47.21;98072.25;5085819;28;20704;-83
2022/07/18 03:57:23;;;;;;;4.60;1.90;;;16.60;59.70;;;15.72;47.26;98074.66;5092890;28;20485;-82
2022/07/18 03:59:48;;;;;;;3.27;2.00;;;16.60;59.90;;;15.80;47.18;98070.66;5092718;28;20525;-82
2022/07/18 04:02:14;;;;;;;4.60;1.90;;;16.60;59.80;;;15.72;47.49;98073.84;5096038;28;20497;-77
2022/07/18 04:04:40;;;;;;;2.47;1.80;;;16.50;60.10;;;15.67;48.00;98065.84;5084961;28;20408;-79
2022/07/18 04:07:06;;;;;;;3.30;1.70;;;16.50;60.50;;;15.66;48.29;98061.59;5082481;28;20464;-80
2022/07/18 04:09:34;;;;;;;3.70;1.83;;;16.50;60.90;;;15.78;48.49;98070.13;5081682;28;20450;-80
2022/07/18 04:11:59;;;;;;;2.10;1.70;;;16.60;61.40;;;15.73;48.75;98062.09;5084319;28;20399;-82
2022/07/18 04:14:25;;;;;;;2.90;1.73;;;16.60;61.30;;;15.70;48.40;98068.00;5081643;28;20528;-80
2022/07/18 04:16:51;;;;;;;4.57;1.75;;;16.50;61.40;;;15.75;48.95;98068.00;5075148;28;20452;-81
2022/07/18 04:19:17;;;;;;;3.90;1.83;;;16.60;62.00;;;15.85;49.71;98076.00;5080858;28;20498;-80
2022/07/18 04:21:44;;;;;;;1.67;1.47;;;16.60;62.30;;;15.75;49.65;98071.47;5080375;28;20526;-78
2022/07/18 04:24:10;;;;;;;2.13;1.75;;;16.60;62.50;;;15.78;49.58;98078.94;5092915;28;20406;-77
2022/07/18 04:26:38;;;;;;;2.25;1.80;;;16.60;62.70;;;15.83;49.94;98068.25;5085017;28;20403;-80
2022/07/18 04:29:04;;;;;;;3.25;1.70;;;16.60;62.80;;;15.89;49.82;98079.72;5081377;28;20403;-78
2022/07/18 04:31:30;;;;;;;2.75;1.77;;;16.60;62.90;;;15.94;49.79;98079.72;5082790;28;20821;-80
2022/07/18 04:33:55;;;;;;;3.22;1.90;;;16.70;63.00;;;15.87;50.02;98074.66;5083303;28;20434;-79
2022/07/18 04:36:22;;;;;;;3.57;1.97;;;16.70;63.10;;;15.90;50.09;98080.53;5081360;28;20403;-79
2022/07/18 04:38:48;;;;;;;5.45;2.40;;;16.70;63.10;;;15.96;50.13;98074.13;5082365;28;20401;-79
2022/07/18 04:41:14;;;;;;;2.38;1.88;;;16.80;63.30;;;16.06;50.16;98063.44;5082663;28;20395;-79
2022/07/18 04:43:41;;;;;;;4.53;1.90;;;16.80;63.60;;;16.12;50.61;98065.81;5082114;28;20415;-81
2022/07/18 04:46:07;;;;;;;2.28;1.80;;;16.90;63.80;;;16.16;50.53;98063.44;5084021;28;20421;-77
2022/07/18 04:48:34;;;;;;;2.63;1.80;;;16.90;63.80;;;16.21;51.03;98056.19;5082556;28;20895;-78
2022/07/18 04:50:59;;;;;;;4.63;1.90;;;17.00;64.20;;;16.30;51.59;98063.66;5081517;28;20774;-77
2022/07/18 04:53:25;;;;;;;2.65;1.65;;;17.00;64.80;;;16.37;51.62;98064.19;5081354;28;20401;-78
2022/07/18 04:55:51;;;;;;;2.30;1.70;;;17.10;65.20;;;16.44;52.02;98067.34;5082344;28;20407;-78
2022/07/18 04:58:17;;;;;;;4.17;2.03;;;17.20;65.50;;;16.53;52.52;98071.06;5081238;28;20396;-78
2022/07/18 05:00:44;;;;;;;5.05;1.70;;;17.30;66.20;;;16.64;52.85;98075.34;5073099;28;20411;-79
2022/07/18 05:03:10;;;;;;;2.97;1.73;;;17.40;66.50;;;16.74;52.48;98075.31;5074727;28;20414;-78
2022/07/18 05:05:36;;;;;;;3.28;1.98;;;17.50;66.30;;;16.87;52.54;98072.03;5080993;28;20399;-79
2022/07/18 05:08:04;;;;;;;2.38;1.67;;;17.60;66.20;;;16.98;51.77;98072.78;5081623;28;20978;-78
2022/07/18 05:10:30;;;;;;;2.63;1.65;;;17.70;65.60;;;17.09;51.40;98068.97;5086447;28;20499;-78
2022/07/18 05:12:56;;;;;;;3.47;1.77;;;17.80;65.40;;;17.19;51.39;98063.56;5082608;28;20463;-78
2022/07/18 05:15:24;;;;;;;2.90;2.00;;;17.90;65.10;;;17.28;51.47;98061.94;5081734;28;20408;-81
2022/07/18 05:17:52;;;;;;;4.20;1.90;;;18.00;65.10;;;17.39;51.71;98063.44;5088310;28;20894;-78
2022/07/18 05:20:22;;;;;;;2.65;1.80;;;18.10;65.40;;;17.48;51.42;98063.66;5080052;28;20402;-78
2022/07/18 05:22:48;;;;;;;4.32;1.90;;;18.20;65.30;;;17.57;51.50;98063.84;5086913;28;20449;-78
2022/07/18 05:25:15;;;;;;;2.30;1.80;;;18.30;65.30;;;17.65;51.47;98056.06;5081527;28;20489;-77
2022/07/18 05:27:41;;;;;;;3.00;1.83;;;18.40;65.10;;;17.73;51.16;98062.69;5080375;28;20410;-77
2022/07/18 05:30:11;;;;;;;4.60;1.80;;;18.50;65.00;;;17.80;51.25;98060.50;5079852;28;20392;-78
2022/07/18 05:32:37;;;;;;;5.78;2.00;;;18.50;65.10;;;17.88;50.75;98067.13;5081289;28;20417;-80
2022/07/18 05:35:07;;;;;;;2.67;1.85;;;18.60;64.80;;;17.96;51.14;98063.84;5078477;28;20411;-80
2022/07/18 05:37:35;;;;;;;2.95;1.90;;;18.70;65.00;;;18.01;51.26;98067.25;5091671;28;20775;-80
2022/07/18 05:40:01;;;;;;;3.83;2.45;;;18.70;65.20;;;18.06;51.26;98067.22;5091109;28;20394;-79
2022/07/18 05:42:27;;;;;;;3.90;2.22;;;18.80;65.20;;;18.14;50.96;98065.78;5091500;28;20410;-80
2022/07/18 05:44:53;;;;;;;3.15;2.33;;;18.80;64.90;;;18.20;50.78;98070.03;5091860;28;20451;-80
2022/07/18 05:47:19;;;;;;;3.53;2.10;;;18.90;64.60;;;18.27;50.50;98065.13;5084377;28;20408;-81
2022/07/18 05:49:45;;;;;;;4.13;2.55;;;18.90;64.50;;;18.33;50.81;98063.22;5081480;28;20932;-80
2022/07/18 05:52:12;;;;;;;4.70;2.23;;;19.00;64.60;;;18.39;50.36;98070.09;5079668;28;20458;-80
2022/07/18 05:54:38;;;;;;;3.88;2.28;;;19.10;64.50;;;18.45;49.96;98069.75;5081546;28;20872;-79
2022/07/18 05:57:05;;;;;;;2.90;2.00;;;19.10;64.00;;;18.50;49.15;98064.34;5083933;28;20429;-80
2022/07/18 05:59:31;;;;;;;3.47;1.90;;;19.20;63.10;;;18.58;47.81;98064.81;5087782;28;20390;-79
2022/07/18 06:01:57;;;;;;;3.40;2.10;;;19.20;61.70;;;18.65;46.97;98066.06;5088551;28;20414;-81
2022/07/18 06:04:23;;;;;;;2.75;2.10;;;19.30;60.90;;;18.71;47.01;98070.31;5090143;28;20482;-80
2022/07/18 06:06:52;;;;;;;2.97;2.08;;;19.30;60.50;;;18.77;45.88;98063.00;5090369;28;20459;-80
2022/07/18 06:09:19;;;;;;;3.97;2.20;;;19.40;59.60;;;18.84;44.92;98064.25;5089700;28;20953;-80
2022/07/18 06:11:45;;;;;;;5.72;2.30;;;19.40;58.70;;;18.89;44.08;98066.84;5090426;28;20753;-79
2022/07/18 06:14:11;;;;;;;3.28;1.90;;;19.50;57.80;;;18.98;43.89;98068.91;5090731;28;20409;-80
2022/07/18 06:16:37;;;;;;;2.65;1.95;;;19.60;57.40;;;19.05;43.41;98072.81;5091096;28;20410;-79
2022/07/18 06:19:03;;;;;;;3.42;1.85;;;19.70;57.30;;;19.11;42.08;98070.88;5090452;28;20402;-79
2022/07/18 06:21:29;;;;;;;3.08;1.80;;;19.80;56.00;;;19.20;42.84;98063.75;5091047;28;20398;-79
2022/07/18 06:23:55;;;;;;;3.08;1.77;;;19.80;56.40;;;19.27;43.14;98066.88;5090907;28;20406;-79
2022/07/18 06:26:22;;;;;;;5.13;2.10;;;19.90;56.80;;;19.32;43.73;98072.97;5090898;28;21016;-80
2022/07/18 06:28:48;;;;;;;3.50;1.70;;;19.90;57.20;;;19.35;44.26;98076.97;5090238;28;20410;-80
2022/07/18 06:31:17;;;;;;;3.05;1.70;;;20.00;57.80;;;19.40;44.58;98071.50;5090814;28;20398;-80
2022/07/18 06:33:44;;;;;;;5.13;2.10;;;20.00;58.00;;;19.44;44.84;98067.19;5090411;28;20401;-80
2022/07/18 06:36:11;;;;;;;3.53;2.00;;;20.10;58.40;;;19.53;44.45;98078.09;5090920;28;20398;-81
2022/07/18 06:38:38;;;;;;;4.30;1.80;;;20.10;58.10;;;19.58;43.87;98072.63;5090236;28;20398;-80
2022/07/18 06:41:05;;;;;;;3.20;1.90;;;20.20;57.40;;;19.63;43.96;98083.28;5090449;28;20406;-80
2022/07/18 06:43:32;;;;;;;3.58;1.92;;;20.20;57.50;;;19.69;43.49;98071.41;5090742;28;20414;-80
2022/07/18 06:45:58;;;;;;;3.80;1.93;;;20.30;57.20;;;19.75;43.74;98066.72;5090564;28;20402;-81
2022/07/18 06:48:24;;;;;;;3.60;2.13;;;20.30;57.20;;;19.82;44.05;98069.84;5090308;28;20921;-80
2022/07/18 06:50:50;;;;;;;4.28;2.10;;;20.40;57.60;;;19.86;43.76;98074.31;5090448;28;20452;-81
2022/07/18 06:53:16;;;;;;;2.58;1.90;;;20.50;57.50;;;19.91;43.47;98066.19;5090628;28;20914;-80
2022/07/18 06:55:42;;;;;;;5.13;2.20;;;20.50;57.00;;;19.99;43.59;98073.59;5090508;28;20477;-80
2022/07/18 06:58:09;;;;;;;3.72;1.90;;;20.60;57.90;;;20.07;43.55;98066.72;5090221;28;20949;-80
2022/07/18 07:00:36;;;;;;;3.58;2.00;;;20.70;57.10;;;20.14;43.36;98063.66;5090371;28;20489;-80
2022/07/18 07:03:02;;;;;;;3.60;2.08;;;20.70;57.00;;;20.20;43.42;98065.16;5090053;28;20420;-80
2022/07/18 07:05:28;;;;;;;3.20;1.97;;;20.80;57.00;;;20.32;43.02;98068.16;5090200;28;20390;-80
2022/07/18 07:07:54;;;;;;;4.57;1.95;;;20.90;56.80;;;20.39;42.37;98061.31;5090403;28;20895;-80
2022/07/18 07:10:20;;;;;;;4.22;1.80;;;21.00;56.10;;;20.45;42.27;98062.00;5089193;28;20398;-80
2022/07/18 07:12:50;;;;;;;3.65;1.83;;;21.00;55.90;;;20.50;42.22;98070.00;5090236;28;20405;-80
2022/07/18 07:15:19;;;;;;;3.47;2.03;;;21.00;55.90;;;20.54;42.46;98064.81;5090017;28;20481;-80
2022/07/18 07:17:47;;;;;;;7.03;2.40;;;21.10;56.10;;;20.61;42.71;98059.81;5089283;28;20780;-81
2022/07/18 07:20:14;;;;;;;3.40;1.95;;;21.10;56.30;;;20.68;39.77;98054.84;5084637;28;20407;-80
2022/07/18 07:22:44;;;;;;;4.25;2.00;;;21.20;53.70;;;20.75;39.21;98061.41;5101876;28;20412;-81
2022/07/18 07:25:11;;;;;;;3.63;1.60;;;21.30;53.00;;;20.88;36.48;98061.72;5089769;28;20501;-80
2022/07/18 07:27:37;;;;;;;2.83;1.80;;;21.40;50.10;;;21.03;36.03;98062.19;5098377;28;20416;-80
2022/07/18 07:30:04;;;;;;;5.30;2.00;;;21.60;49.50;;;21.12;36.76;98063.06;5100272;28;20394;-81
2022/07/18 07:32:35;;;;;;;3.60;1.70;;;21.70;50.00;;;21.21;36.94;98058.56;5109099;28;20388;-81
2022/07/18 07:35:03;;;;;;;3.33;1.75;;;21.80;50.40;;;21.26;37.25;98057.69;5110969;28;20721;-80
2022/07/18 07:37:29;;;;;;;2.60;1.87;;;21.80;50.40;;;21.38;36.49;98054.44;5110242;28;20494;-81
2022/07/18 07:39:55;;;;;;;4.37;1.50;;;21.90;50.00;;;21.39;36.71;98059.53;5109628;28;20392;-81
2022/07/18 07:42:21;;;;;;;3.47;1.52;;;21.90;50.00;;;21.44;36.26;98059.41;5109952;28;20403;-81
2022/07/18 07:44:47;;;;;;;3.15;1.50;;;21.90;49.60;;;21.47;36.38;98058.00;5110216;28;20400;-81
2022/07/18 07:47:13;;;;;;;2.85;1.80;;;22.00;49.80;;;21.56;36.52;98056.19;5097230;22;20450;-78
2022/07/18 07:49:39;;;;;;;3.40;1.60;;;22.10;50.00;;;21.60;35.74;98051.75;5069202;28;20404;-78
2022/07/18 07:52:06;;;;;;;2.72;1.60;;;22.10;49.30;;;21.71;35.47;98050.44;5069325;28;20473;-78
2022/07/18 07:54:32;;;;;;;6.25;1.63;;;22.20;48.90;;;21.78;35.73;98045.41;5069472;28;20449;-78
2022/07/18 07:56:58;;;;;;;2.63;1.60;;;22.30;49.00;;;21.84;35.66;98043.38;5069532;28;20399;-78
2022/07/18 07:59:24;;;;;;;2.50;1.30;;;22.30;49.00;;;21.88;35.70;98047.03;5068712;28;20464;-78
2022/07/18 08:01:50;;;;;;;3.45;1.50;;;22.40;49.00;;;21.97;35.50;98042.50;5069383;28;20942;-78
2022/07/18 08:04:16;;;;;;;5.78;2.20;;;22.40;48.80;;;22.08;33.88;98041.16;5069661;28;20416;-78
2022/07/18 08:06:42;;;;;;;7.55;2.00;;;22.60;47.10;;;22.25;33.51;98043.91;5051416;28;20439;-78
2022/07/18 08:09:09;;;;;;;3.85;1.63;;;22.70;46.90;;;22.37;33.65;98040.66;5068800;28;20402;-78
2022/07/18 08:11:35;;;;;;;3.78;1.67;;;22.90;46.90;;;22.48;34.22;98035.78;5069144;28;20399;-78
2022/07/18 08:14:01;;;;;;;3.90;1.50;;;22.90;47.50;;;22.59;33.88;98031.69;5051364;28;20415;-78
2022/07/18 08:16:27;;;;;;;3.90;1.55;;;23.00;47.10;;;22.65;34.01;98030.44;5069260;28;20406;-78
2022/07/18 08:18:52;;;;;;;2.45;1.50;;;23.10;47.30;;;22.73;34.69;98035.06;5068668;28;20411;-78
2022/07/18 08:21:18;;;;;;;6.03;1.80;;;23.20;48.00;;;22.83;35.46;98034.81;5069195;28;20400;-78
2022/07/18 08:23:47;;;;;;;2.90;1.95;;;23.30;48.60;;;22.93;35.69;98041.81;5069120;28;20451;-78
2022/07/18 08:26:15;;;;;;;3.70;1.67;;;23.40;49.70;;;23.06;36.12;98036.28;5069293;28;20427;-78
2022/07/18 08:28:41;;;;;;;5.65;2.28;;;23.50;49.30;;;23.12;35.93;98040.41;5072139;28;20400;-78
2022/07/18 08:31:07;;;;;;;5.07;2.28;;;23.60;49.10;;;23.23;35.82;98035.47;5072644;28;20419;-78
2022/07/18 08:33:33;;;;;;;5.85;2.40;;;23.70;49.00;;;23.31;35.65;98040.09;5072846;28;20402;-77
2022/07/18 08:35:59;;;;;;;7.00;2.33;;;23.70;49.00;;;23.43;34.67;98029.44;5072881;28;20404;-78
2022/07/18 08:38:25;;;;;;;5.30;1.77;;;23.90;47.90;;;23.62;34.34;98034.53;5072310;28;20410;-77
2022/07/18 08:40:53;;;;;;;3.70;1.60;;;24.10;47.60;;;23.76;34.35;98037.84;5072493;28;20461;-78
2022/07/18 08:43:20;;;;;;;3.93;1.90;;;24.20;47.70;;;23.91;34.43;98034.66;5072800;28;20446;-78
2022/07/18 08:45:47;;;;;;;3.33;1.88;;;24.30;47.50;;;24.06;34.23;98036.03;5072343;28;20404;-78
2022/07/18 08:48:14;;;;;;;4.50;1.70;;;24.40;47.50;;;24.19;34.16;98035.06;5072205;28;20477;-78
2022/07/18 08:50:43;;;;;;;4.28;2.05;;;24.60;47.40;;;24.32;34.40;98032.50;5072306;28;20400;-78
2022/07/18 08:53:10;;;;;;;3.20;1.48;;;24.70;47.50;;;24.43;34.20;98039.16;5072573;28;20710;-78
2022/07/18 08:55:36;;;;;;;3.57;1.97;;;24.80;47.30;;;24.53;34.48;98044.97;5072333;28;20486;-77
2022/07/18 08:58:02;;;;;;;2.50;1.73;;;24.90;47.60;;;24.69;34.03;98028.97;5071993;28;20491;-78
2022/07/18 09:00:30;;;;;;;5.70;2.03;;;25.00;47.30;;;24.85;33.36;98040.81;5072100;28;20782;-78
2022/07/18 09:03:00;;;;;;;5.03;1.90;;;25.20;46.50;;;24.93;33.52;98044.63;5072375;28;20634;-77
2022/07/18 09:05:26;;;;;;;3.33;1.80;;;25.30;46.50;;;25.03;33.29;98055.88;5072208;28;20738;-77
2022/07/18 09:08:09;;;;;;;3.55;1.95;;;25.40;46.40;;;25.31;32.02;98048.03;5054330;28;20762;-78
2022/07/18 09:10:47;;;;;;;6.28;2.13;;;25.60;45.80;;;25.27;31.19;98044.38;5071927;28;20399;-78
2022/07/18 09:13:13;;;;;;;5.70;2.00;;;25.60;44.90;;;25.36;31.74;98039.69;5072421;28;20392;-78
2022/07/18 09:16:01;;;;;;;5.03;1.83;;;25.70;44.50;;;25.44;32.03;98041.53;5072154;28;20406;-77
2022/07/18 09:18:28;;;;;;;5.82;1.92;;;25.80;44.90;;;25.62;31.73;98047.66;5071559;28;20395;-77
2022/07/18 09:20:59;;;;;;;3.20;1.75;;;25.90;44.80;;;25.73;31.47;98046.09;5071935;28;20407;-77
2022/07/18 09:23:28;;;;;;;5.82;2.08;;;26.10;44.50;;;25.96;30.38;98043.00;5071860;28;20908;-77
2022/07/18 09:25:54;;;;;;;3.33;1.98;;;26.30;43.50;;;26.08;30.33;98051.97;5071889;28;20443;-77
2022/07/18 09:28:20;;;;;;;3.05;1.90;;;26.50;43.10;;;26.18;29.70;98045.31;5071543;28;20400;-77
2022/07/18 09:30:48;;;;;;;2.60;1.90;;;26.50;42.50;;;26.23;29.60;98036.97;5071617;28;20423;-78
2022/07/18 09:33:15;;;;;;;4.05;1.58;;;26.60;42.30;;;26.28;29.44;98038.69;5053861;28;20411;-77
2022/07/18 09:35:44;;;;;;;4.38;2.20;;;26.60;42.20;;;26.37;28.15;98042.09;5071615;28;20434;-78
2022/07/18 09:38:13;;;;;;;3.58;1.88;;;26.70;41.00;;;26.45;28.46;98041.22;5070088;28;20502;-77
2022/07/18 09:40:42;;;;;;;4.07;1.83;;;26.70;41.10;;;26.48;28.45;98038.59;5071014;28;20399;-78
2022/07/18 09:43:10;;;;;;;5.30;2.28;;;26.80;41.00;;;26.55;27.64;98035.31;5071532;28;20411;-77
2022/07/18 09:45:38;;;;;;;4.90;1.80;;;26.90;40.30;;;26.62;27.07;98034.75;5071396;28;20785;-77
2022/07/18 09:48:08;;;;;;;5.82;1.80;;;26.90;39.50;;;26.55;27.65;98040.75;5070950;28;20403;-78
2022/07/18 09:50:38;;;;;;;7.10;1.80;;;26.90;40.00;;;26.59;27.87;98034.31;5067939;28;20401;-79
2022/07/18 09:53:15;;;;;;;4.38;1.45;;;26.90;40.50;;;26.66;27.51;98025.59;5054048;28;20441;-79
2022/07/18 09:55:44;;;;;;;5.60;1.60;;;27.00;40.10;;;26.82;27.69;98020.25;5061041;28;20426;-77
2022/07/18 09:58:11;;;;;;;3.28;1.83;;;27.10;40.40;;;27.00;27.69;98020.81;5058717;28;20423;-79
2022/07/18 10:00:40;;;;;;;2.73;1.50;;;27.30;40.40;;;27.17;28.21;98023.28;5070542;28;20396;-78
2022/07/18 10:03:08;;;;;;;3.60;1.63;;;27.50;40.80;;;27.34;28.23;98026.50;5066787;28;20447;-79
2022/07/18 10:05:36;;;;;;;3.15;1.60;;;27.70;40.60;;;27.65;26.46;98022.34;5070186;28;20400;-78
2022/07/18 10:08:05;;;;;;;2.80;1.40;;;27.90;39.60;;;27.69;26.64;98021.28;5070382;28;20396;-79
2022/07/18 10:10:32;;;;;;;2.10;1.60;;;28.00;39.00;;;27.76;26.63;98023.41;5070921;28;20878;-78
2022/07/18 10:13:00;;;;;;;6.65;1.67;;;28.10;39.20;;;27.84;26.24;98022.47;5071205;28;20387;-78
2022/07/18 10:15:29;;;;;;;2.88;1.65;;;28.20;38.70;;;27.91;25.64;98024.59;5071007;28;20407;-77
2022/07/18 10:17:56;;;;;;;2.28;1.42;;;28.20;37.80;;;28.11;24.90;98016.19;5070861;28;20916;-78
2022/07/18 10:20:34;;;;;;;2.70;1.60;;;28.40;36.90;;;28.11;25.07;98026.31;5070241;28;20415;-79
2022/07/18 10:23:16;;;;;;;3.58;1.60;;;28.40;37.20;;;28.18;25.48;98017.53;5070905;28;20411;-78
2022/07/18 10:25:42;;;;;;;4.97;1.83;;;28.50;37.50;;;28.39;23.91;98023.53;5070693;28;20392;-79